createdAt,value
2017-03-18T00:00:35.279Z,991.96
2017-03-18T00:01:45.620Z,992.02
2017-03-18T00:02:55.993Z,992.06
2017-03-18T00:04:06.337Z,992.03
2017-03-18T00:05:16.374Z,992.03
2017-03-18T00:06:26.705Z,992.03
2017-03-18T00:07:37.067Z,992.01
2017-03-18T00:08:47.406Z,992
2017-03-18T00:09:57.425Z,991.98
2017-03-18T00:11:07.771Z,991.98
2017-03-18T00:12:18.118Z,992.02
2017-03-18T00:13:28.153Z,992.12
2017-03-18T00:14:38.509Z,992.15
2017-03-18T00:15:48.835Z,992.16
2017-03-18T00:16:59.162Z,992.19
2017-03-18T00:18:09.179Z,992.12
2017-03-18T00:19:19.558Z,992.07
2017-03-18T00:20:29.894Z,992.03
2017-03-18T00:21:39.928Z,992.08
2017-03-18T00:22:50.270Z,992.03
2017-03-18T00:23:59.994Z,992
2017-03-18T00:25:10.347Z,992.01
2017-03-18T00:26:20.380Z,991.95
2017-03-18T00:27:30.715Z,991.94
2017-03-18T00:28:41.073Z,991.97
2017-03-18T00:29:51.153Z,991.97
2017-03-18T00:31:01.502Z,991.96
2017-03-18T00:32:11.826Z,991.98
2017-03-18T00:33:22.163Z,992.04
2017-03-18T00:34:32.197Z,992.09
2017-03-18T00:35:42.548Z,992.12
2017-03-18T00:36:52.880Z,992.08
2017-03-18T00:38:03.222Z,992.12
2017-03-18T00:39:13.587Z,992.09
2017-03-18T00:40:23.934Z,992.17
2017-03-18T00:41:33.971Z,992.14
2017-03-18T00:42:44.312Z,992.14
2017-03-18T00:43:54.661Z,992.08
2017-03-18T00:45:05.009Z,992.04
2017-03-18T00:46:15.342Z,992.03
2017-03-18T00:47:25.681Z,992
2017-03-18T00:48:35.410Z,992.02
2017-03-18T00:49:45.781Z,991.99
2017-03-18T00:50:56.132Z,991.98
2017-03-18T00:52:06.472Z,992
2017-03-18T00:53:16.807Z,992.02
2017-03-18T00:54:27.176Z,992.08
2017-03-18T00:55:37.221Z,992.12
2017-03-18T00:56:47.563Z,992.15
2017-03-18T00:57:57.896Z,992.16
2017-03-18T00:59:08.237Z,992.24
2017-03-18T01:00:18.573Z,992.26
2017-03-18T01:01:28.927Z,992.21
2017-03-18T01:02:39.272Z,992.2
2017-03-18T01:03:49.300Z,992.2
2017-03-18T01:04:59.647Z,992.19
2017-03-18T01:06:09.977Z,992.23
2017-03-18T01:07:19.694Z,992.19
2017-03-18T01:08:29.715Z,992.23
2017-03-18T01:09:39.747Z,992.18
2017-03-18T01:10:50.101Z,992.13
2017-03-18T01:12:00.450Z,992.08
2017-03-18T01:13:10.479Z,992.1
2017-03-18T01:14:20.842Z,992.03
2017-03-18T01:15:31.181Z,992.01
2017-03-18T01:16:41.222Z,991.97
2017-03-18T01:17:51.235Z,991.99
2017-03-18T01:19:01.271Z,992.06
2017-03-18T01:20:11.611Z,992.02
2017-03-18T01:21:21.954Z,991.97
2017-03-18T01:22:31.671Z,991.89
2017-03-18T01:23:42.009Z,991.82
2017-03-18T01:24:52.356Z,991.77
2017-03-18T01:26:02.692Z,991.83
2017-03-18T01:27:12.723Z,991.82
2017-03-18T01:28:23.062Z,991.88
2017-03-18T01:29:33.397Z,991.91
2017-03-18T01:30:43.762Z,991.91
2017-03-18T01:31:54.112Z,991.92
2017-03-18T01:33:04.482Z,991.9
2017-03-18T01:34:14.883Z,991.87
2017-03-18T01:35:24.599Z,991.85
2017-03-18T01:36:34.945Z,991.87
2017-03-18T01:37:44.659Z,991.88
2017-03-18T01:38:54.694Z,991.85
2017-03-18T01:40:05.044Z,991.93
2017-03-18T01:41:15.088Z,991.92
2017-03-18T01:42:25.435Z,991.93
2017-03-18T01:43:35.774Z,991.91
2017-03-18T01:44:45.809Z,991.83
2017-03-18T01:45:56.159Z,991.82
2017-03-18T01:47:06.494Z,991.83
2017-03-18T01:48:16.514Z,991.79
2017-03-18T01:49:26.860Z,991.79
2017-03-18T01:50:36.893Z,991.78
2017-03-18T01:51:47.225Z,991.77
2017-03-18T01:52:57.566Z,991.73
2017-03-18T01:54:07.912Z,991.79
2017-03-18T01:55:17.941Z,991.75
2017-03-18T01:56:28.276Z,991.7
2017-03-18T01:57:38.607Z,991.6
2017-03-18T01:58:48.961Z,991.52
2017-03-18T01:59:59.295Z,991.43
2017-03-18T02:01:09.339Z,991.43
2017-03-18T02:02:19.718Z,991.38
2017-03-18T02:03:30.076Z,991.36
2017-03-18T02:04:40.416Z,991.37
2017-03-18T02:05:50.757Z,991.32
2017-03-18T02:07:01.102Z,991.31
2017-03-18T02:08:10.819Z,991.37
2017-03-18T02:09:20.853Z,991.3
2017-03-18T02:10:31.210Z,991.22
2017-03-18T02:11:41.538Z,991.26
2017-03-18T02:12:51.883Z,991.25
2017-03-18T02:14:02.261Z,991.23
2017-03-18T02:15:12.597Z,991.21
2017-03-18T02:16:22.628Z,991.22
2017-03-18T02:17:32.969Z,991.16
2017-03-18T02:18:42.992Z,991.16
2017-03-18T02:19:53.341Z,991.12
2017-03-18T02:21:03.674Z,991.1
2017-03-18T02:22:13.700Z,991.08
2017-03-18T02:23:24.038Z,991.11
2017-03-18T02:24:34.387Z,991.09
2017-03-18T02:25:44.732Z,991.06
2017-03-18T02:26:55.080Z,991.06
2017-03-18T02:28:05.106Z,991.08
2017-03-18T02:29:15.442Z,991.02
2017-03-18T02:30:25.795Z,990.99
2017-03-18T02:31:35.821Z,990.99
2017-03-18T02:32:46.173Z,991
2017-03-18T02:33:56.516Z,990.95
2017-03-18T02:35:06.861Z,990.89
2017-03-18T02:36:17.195Z,990.84
2017-03-18T02:37:27.521Z,990.82
2017-03-18T02:38:37.870Z,990.73
2017-03-18T02:39:47.573Z,990.71
2017-03-18T02:40:57.626Z,990.69
2017-03-18T02:42:07.672Z,990.66
2017-03-18T02:43:18.005Z,990.62
2017-03-18T02:44:28.370Z,990.62
2017-03-18T02:45:38.707Z,990.58
2017-03-18T02:46:48.803Z,990.55
2017-03-18T02:47:59.185Z,990.49
2017-03-18T02:49:09.208Z,990.43
2017-03-18T02:50:19.238Z,990.34
2017-03-18T02:51:29.585Z,990.34
2017-03-18T02:52:39.938Z,990.24
2017-03-18T02:53:49.680Z,990.26
2017-03-18T02:55:00.035Z,990.3
2017-03-18T02:56:10.078Z,990.25
2017-03-18T02:57:20.454Z,990.2
2017-03-18T02:58:30.825Z,990.21
2017-03-18T02:59:41.184Z,990.21
2017-03-18T03:00:51.221Z,990.22
2017-03-18T03:02:01.558Z,990.29
2017-03-18T03:32:42.993Z,990.06
2017-03-18T03:33:53.355Z,990.04
2017-03-18T03:35:03.694Z,990.01
2017-03-18T03:36:13.703Z,990.01
2017-03-18T03:37:24.033Z,990.01
2017-03-18T03:38:34.367Z,990.03
2017-03-18T03:39:44.382Z,990.03
2017-03-18T03:40:54.715Z,990.02
2017-03-18T03:42:05.055Z,989.96
2017-03-18T03:43:15.099Z,990
2017-03-18T03:44:25.117Z,990.03
2017-03-18T03:45:35.437Z,990.07
2017-03-18T03:46:45.776Z,990.07
2017-03-18T03:47:56.115Z,990.04
2017-03-18T03:49:06.144Z,990
2017-03-18T03:50:16.713Z,990.07
2017-03-18T03:51:27.081Z,989.97
2017-03-18T03:52:37.422Z,989.95
2017-03-18T03:53:47.485Z,989.98
2017-03-18T03:54:57.529Z,990.01
2017-03-18T03:56:07.862Z,990.05
2017-03-18T03:57:18.208Z,990.08
2017-03-18T03:58:28.235Z,990.11
2017-03-18T03:59:38.578Z,990.19
2017-03-18T04:00:48.917Z,990.13
2017-03-18T04:01:59.265Z,990.05
2017-03-18T04:03:09.284Z,990.1
2017-03-18T04:04:19.640Z,990.11
2017-03-18T04:05:29.687Z,990.17
2017-03-18T04:06:39.710Z,990.15
2017-03-18T04:07:50.094Z,990.02
2017-03-18T04:09:00.139Z,989.99
2017-03-18T04:10:10.490Z,990.04
2017-03-18T04:11:20.829Z,989.99
2017-03-18T04:12:31.162Z,989.96
2017-03-18T04:13:41.498Z,989.87
2017-03-18T04:14:51.215Z,989.89
2017-03-18T04:16:01.564Z,989.89
2017-03-18T04:17:11.905Z,989.84
2017-03-18T04:18:22.249Z,989.84
2017-03-18T04:19:32.590Z,989.93
2017-03-18T04:20:42.614Z,989.93
2017-03-18T04:21:52.967Z,989.98
2017-03-18T04:23:02.994Z,989.92
2017-03-18T04:24:13.012Z,989.87
2017-03-18T04:25:23.339Z,989.9
2017-03-18T04:26:33.669Z,989.87
2017-03-18T04:27:44.001Z,989.83
2017-03-18T04:28:54.060Z,989.8
2017-03-18T04:30:04.401Z,989.85
2017-03-18T04:31:14.417Z,989.84
2017-03-18T04:32:24.434Z,989.81
2017-03-18T04:33:34.782Z,989.75
2017-03-18T04:34:45.151Z,989.69
2017-03-18T04:35:55.479Z,989.69
2017-03-18T04:37:05.832Z,989.71
2017-03-18T04:38:15.865Z,989.74
2017-03-18T04:39:25.893Z,989.72
2017-03-18T04:40:36.249Z,989.64
2017-03-18T04:41:46.268Z,989.53
2017-03-18T04:42:56.298Z,989.44
2017-03-18T04:44:06.337Z,989.52
2017-03-18T04:45:16.686Z,989.51
2017-03-18T04:46:27.049Z,989.49
2017-03-18T04:47:37.371Z,989.42
2017-03-18T04:48:47.708Z,989.49
2017-03-18T04:49:58.057Z,989.53
2017-03-18T04:51:08.388Z,989.49
2017-03-18T04:52:18.987Z,989.54
2017-03-18T04:53:29.340Z,989.51
2017-03-18T04:54:39.696Z,989.37
2017-03-18T04:55:50.027Z,989.28
2017-03-18T04:57:00.044Z,989.27
2017-03-18T04:58:10.389Z,989.3
2017-03-18T04:59:20.743Z,989.27
2017-03-18T05:00:30.132Z,989.27
2017-03-18T05:01:40.462Z,989.32
2017-03-18T05:02:50.793Z,989.35
2017-03-18T05:04:01.134Z,989.31
2017-03-18T05:05:11.153Z,989.35
2017-03-18T05:06:21.516Z,989.44
2017-03-18T05:07:31.846Z,989.43
2017-03-18T05:08:41.882Z,989.43
2017-03-18T05:09:51.908Z,989.4
2017-03-18T05:11:02.250Z,989.44
2017-03-18T05:12:12.588Z,989.32
2017-03-18T05:13:22.602Z,989.25
2017-03-18T05:14:32.955Z,989.27
2017-03-18T05:15:43.301Z,989.35
2017-03-18T05:16:53.645Z,989.36
2017-03-18T05:18:03.670Z,989.34
2017-03-18T05:19:14.020Z,989.22
2017-03-18T05:20:24.363Z,989.26
2017-03-18T05:21:34.686Z,989.24
2017-03-18T05:22:44.714Z,989.33
2017-03-18T05:23:54.753Z,989.48
2017-03-18T05:25:05.101Z,989.47
2017-03-18T05:26:15.157Z,989.4
2017-03-18T05:27:25.493Z,989.28
2017-03-18T05:28:35.820Z,989.28
2017-03-18T05:29:46.158Z,989.28
2017-03-18T05:30:55.900Z,989.22
2017-03-18T05:32:06.236Z,989.28
2017-03-18T05:33:16.568Z,989.26
2017-03-18T05:34:26.900Z,989.31
2017-03-18T05:35:37.231Z,989.37
2017-03-18T05:36:47.569Z,989.4
2017-03-18T05:37:57.910Z,989.28
2017-03-18T05:39:07.941Z,989.12
2017-03-18T05:40:17.998Z,989.05
2017-03-18T05:41:28.331Z,989.17
2017-03-18T05:42:38.674Z,989.17
2017-03-18T05:43:49.034Z,989.04
2017-03-18T05:44:59.380Z,988.9
2017-03-18T05:46:09.726Z,988.91
2017-03-18T05:47:20.072Z,988.89
2017-03-18T05:48:30.406Z,988.93
2017-03-18T05:49:40.745Z,989
2017-03-18T05:50:50.762Z,989.06
2017-03-18T05:52:01.100Z,989.03
2017-03-18T05:53:11.424Z,989.01
2017-03-18T05:54:21.450Z,988.99
2017-03-18T05:55:31.782Z,988.93
2017-03-18T05:56:42.165Z,988.88
2017-03-18T05:57:52.499Z,988.81
2017-03-18T05:59:02.848Z,988.77
2017-03-18T06:00:13.192Z,988.79
2017-03-18T06:01:23.515Z,988.75
2017-03-18T06:02:33.851Z,988.69
2017-03-18T06:03:44.206Z,988.62
2017-03-18T06:04:54.556Z,988.58
2017-03-18T06:06:04.935Z,988.55
2017-03-18T06:07:14.953Z,988.62
2017-03-18T06:08:24.990Z,988.62
2017-03-18T06:09:35.323Z,988.58
2017-03-18T06:10:45.658Z,988.66
2017-03-18T06:11:56.010Z,988.69
2017-03-18T06:13:06.341Z,988.72
2017-03-18T06:14:16.689Z,988.72
2017-03-18T06:15:26.720Z,988.78
2017-03-18T06:16:36.750Z,988.73
2017-03-18T06:17:47.100Z,988.76
2017-03-18T06:18:57.464Z,988.71
2017-03-18T06:20:07.804Z,988.71
2017-03-18T06:21:18.143Z,988.7
2017-03-18T06:22:28.179Z,988.69
2017-03-18T06:23:38.188Z,988.63
2017-03-18T06:24:48.530Z,988.6
2017-03-18T06:25:58.872Z,988.57
2017-03-18T06:27:09.216Z,988.5
2017-03-18T06:28:19.238Z,988.47
2017-03-18T06:29:28.943Z,988.42
2017-03-18T06:30:38.969Z,988.47
2017-03-18T06:31:49.313Z,988.44
2017-03-18T06:32:59.659Z,988.43
2017-03-18T06:34:09.673Z,988.41
2017-03-18T06:35:19.690Z,988.51
2017-03-18T06:36:30.021Z,988.53
2017-03-18T06:37:39.730Z,988.56
2017-03-18T06:38:49.772Z,988.52
2017-03-18T06:40:00.119Z,988.47
2017-03-18T06:41:10.454Z,988.46
2017-03-18T06:42:20.476Z,988.45
2017-03-18T06:43:30.509Z,988.45
2017-03-18T06:44:40.792Z,988.35
2017-03-18T06:45:51.115Z,988.42
2017-03-18T06:47:01.691Z,988.49
2017-03-18T06:48:12.058Z,988.53
2017-03-18T06:49:22.406Z,988.55
2017-03-18T06:50:32.752Z,988.57
2017-03-18T06:51:42.780Z,988.56
2017-03-18T06:52:53.169Z,988.58
2017-03-18T06:54:03.204Z,988.65
2017-03-18T06:55:13.563Z,988.62
2017-03-18T06:56:23.910Z,988.62
2017-03-18T06:57:34.285Z,988.58
2017-03-18T06:58:44.001Z,988.59
2017-03-18T06:59:54.359Z,988.6
2017-03-18T07:01:04.380Z,988.61
2017-03-18T07:02:14.402Z,988.65
2017-03-18T07:03:24.107Z,988.67
2017-03-18T07:04:34.451Z,988.58
2017-03-18T07:05:44.774Z,988.59
2017-03-18T07:06:54.801Z,988.63
2017-03-18T07:08:05.131Z,988.61
2017-03-18T07:09:14.887Z,988.69
2017-03-18T07:10:25.237Z,988.54
2017-03-18T07:11:35.271Z,988.4
2017-03-18T07:12:45.598Z,988.52
2017-03-18T07:13:55.959Z,988.6
2017-03-18T07:15:05.979Z,988.49
2017-03-18T07:16:16.311Z,988.59
2017-03-18T07:17:26.631Z,988.52
2017-03-18T07:18:36.675Z,988.47
2017-03-18T07:19:47.043Z,988.51
2017-03-18T07:20:57.392Z,988.48
2017-03-18T07:22:07.432Z,988.43
2017-03-18T07:23:17.779Z,988.48
2017-03-18T07:24:27.807Z,988.51
2017-03-18T07:25:38.143Z,988.39
2017-03-18T07:26:48.147Z,988.44
2017-03-18T07:27:58.191Z,988.46
2017-03-18T07:29:08.211Z,988.42
2017-03-18T07:30:18.243Z,988.48
2017-03-18T07:31:28.576Z,988.4
2017-03-18T07:32:38.628Z,988.56
2017-03-18T07:33:48.653Z,988.42
2017-03-18T07:34:58.994Z,988.39
2017-03-18T07:36:09.341Z,988.36
2017-03-18T07:37:19.364Z,988.29
2017-03-18T07:38:29.707Z,988.4
2017-03-18T07:39:40.043Z,988.4
2017-03-18T07:40:50.390Z,988.3
2017-03-18T07:42:00.720Z,988.56
2017-03-18T07:43:11.066Z,988.41
2017-03-18T07:44:21.405Z,988.45
2017-03-18T07:45:31.762Z,988.55
2017-03-18T07:46:42.111Z,988.48
2017-03-18T07:47:52.461Z,988.75
2017-03-18T07:49:02.472Z,988.39
2017-03-18T07:50:12.523Z,988.58
2017-03-18T07:51:22.542Z,988.5
2017-03-18T07:52:32.885Z,988.61
2017-03-18T07:53:43.245Z,988.4
2017-03-18T07:54:52.963Z,988.35
2017-03-18T07:56:03.316Z,988.4
2017-03-18T07:57:13.643Z,988.37
2017-03-18T07:58:23.679Z,988.5
2017-03-18T07:59:34.032Z,988.37
2017-03-18T08:00:43.754Z,988.27
2017-03-18T08:01:54.095Z,988.4
2017-03-18T08:03:04.129Z,988.43
2017-03-18T08:04:14.479Z,988.4
2017-03-18T08:05:24.518Z,988.4
2017-03-18T08:06:34.544Z,988.38
2017-03-18T08:07:44.554Z,988.43
2017-03-18T08:08:54.901Z,988.34
2017-03-18T08:10:05.246Z,988.39
2017-03-18T08:11:15.576Z,988.39
2017-03-18T08:12:25.932Z,988.39
2017-03-18T08:13:35.954Z,988.32
2017-03-18T08:14:46.319Z,988.29
2017-03-18T08:15:56.682Z,988.25
2017-03-18T08:17:07.030Z,988.35
2017-03-18T08:18:17.361Z,988.21
2017-03-18T08:19:27.396Z,988.17
2017-03-18T08:20:37.426Z,988.24
2017-03-18T08:21:47.811Z,988.17
2017-03-18T08:22:58.168Z,988.18
2017-03-18T08:24:08.190Z,988.21
2017-03-18T08:25:18.569Z,988.2
2017-03-18T08:26:28.906Z,988.2
2017-03-18T08:27:39.268Z,988.22
2017-03-18T08:28:49.616Z,988.31
2017-03-18T08:29:59.962Z,988.26
2017-03-18T08:31:09.687Z,988.18
2017-03-18T08:32:20.025Z,988.36
2017-03-18T08:33:30.386Z,988.21
2017-03-18T08:34:40.728Z,988.19
2017-03-18T08:35:50.764Z,988.18
2017-03-18T08:37:01.089Z,988.2
2017-03-18T08:38:11.442Z,988.22
2017-03-18T08:39:21.807Z,988.31
2017-03-18T08:40:32.162Z,988.12
2017-03-18T08:41:42.499Z,988.32
2017-03-18T08:42:52.851Z,988.29
2017-03-18T08:44:03.186Z,988.32
2017-03-18T08:45:13.553Z,988.2
2017-03-18T08:46:23.894Z,988.14
2017-03-18T08:47:34.236Z,988.33
2017-03-18T08:48:44.595Z,988.18
2017-03-18T08:49:54.638Z,988.13
2017-03-18T08:51:04.978Z,988.28
2017-03-18T08:52:15.344Z,988.06
2017-03-18T08:53:25.702Z,988.22
2017-03-18T08:54:36.071Z,988.03
2017-03-18T08:55:46.090Z,988.19
2017-03-18T08:56:56.120Z,988.03
2017-03-18T08:58:06.467Z,988.11
2017-03-18T08:59:16.830Z,988.05
2017-03-18T09:00:27.182Z,988.18
2017-03-18T09:01:37.545Z,988.08
2017-03-18T09:02:47.895Z,988.14
2017-03-18T09:03:58.252Z,988.13
2017-03-18T09:05:08.587Z,987.94
2017-03-18T09:06:18.944Z,988.05
2017-03-18T09:07:29.286Z,987.78
2017-03-18T09:08:39.646Z,987.91
2017-03-18T09:09:50.003Z,987.86
2017-03-18T09:11:00.369Z,987.94
2017-03-18T09:12:10.703Z,987.95
2017-03-18T09:13:21.064Z,988
2017-03-18T09:14:31.440Z,987.95
2017-03-18T09:15:41.785Z,987.98
2017-03-18T09:16:51.531Z,988.05
2017-03-18T09:18:01.869Z,988.01
2017-03-18T09:19:12.228Z,987.9
2017-03-18T09:20:22.587Z,987.91
2017-03-18T09:21:32.648Z,987.9
2017-03-18T09:22:43.005Z,987.87
2017-03-18T09:23:53.057Z,987.84
2017-03-18T09:25:03.094Z,987.84
2017-03-18T09:26:13.439Z,987.9
2017-03-18T09:27:23.808Z,987.77
2017-03-18T09:28:34.166Z,987.7
2017-03-18T09:29:44.530Z,987.62
2017-03-18T09:30:54.887Z,987.7
2017-03-18T09:32:04.924Z,987.51
2017-03-18T09:33:15.289Z,987.65
2017-03-18T09:34:25.367Z,987.62
2017-03-18T09:35:35.715Z,987.54
2017-03-18T09:36:45.449Z,987.51
2017-03-18T09:37:55.787Z,987.56
2017-03-18T09:39:05.820Z,987.49
2017-03-18T09:40:16.168Z,987.4
2017-03-18T09:41:26.520Z,987.61
2017-03-18T09:42:36.569Z,987.57
2017-03-18T09:43:46.925Z,987.51
2017-03-18T09:44:56.973Z,987.52
2017-03-18T09:46:07.323Z,987.57
2017-03-18T09:47:17.678Z,987.54
2017-03-18T09:48:28.055Z,987.44
2017-03-18T09:49:38.449Z,987.51
2017-03-18T09:50:48.222Z,987.56
2017-03-18T09:51:58.590Z,987.47
2017-03-18T09:53:08.934Z,987.52
2017-03-18T09:54:19.285Z,987.44
2017-03-18T09:55:29.653Z,987.45
2017-03-18T09:56:40.005Z,987.48
2017-03-18T09:57:50.042Z,987.43
2017-03-18T09:59:00.380Z,987.38
2017-03-18T10:00:10.724Z,987.44
2017-03-18T10:01:20.439Z,987.43
2017-03-18T10:02:30.787Z,987.46
2017-03-18T10:03:41.152Z,987.37
2017-03-18T10:04:51.512Z,987.39
2017-03-18T10:06:01.878Z,987.35
2017-03-18T10:07:12.219Z,987.36
2017-03-18T10:08:22.576Z,987.41
2017-03-18T10:09:32.952Z,987.43
2017-03-18T10:10:42.974Z,987.35
2017-03-18T10:11:53.331Z,987.38
2017-03-18T10:13:03.677Z,987.26
2017-03-18T10:14:13.725Z,987.37
2017-03-18T10:15:24.070Z,987.37
2017-03-18T10:16:34.418Z,987.29
2017-03-18T10:17:44.801Z,987.27
2017-03-18T10:18:54.846Z,987.27
2017-03-18T10:20:05.203Z,987.34
2017-03-18T10:21:15.555Z,987.27
2017-03-18T10:22:25.922Z,987.3
2017-03-18T10:23:35.968Z,987.24
2017-03-18T10:24:46.336Z,987.2
2017-03-18T10:25:56.697Z,987.19
2017-03-18T10:27:07.068Z,987.26
2017-03-18T10:28:17.426Z,987.22
2017-03-18T10:29:27.471Z,987.09
2017-03-18T10:30:37.825Z,987.1
2017-03-18T10:31:48.173Z,987.24
2017-03-18T10:32:58.204Z,987.24
2017-03-18T10:34:08.583Z,987.23
2017-03-18T10:35:18.627Z,987.23
2017-03-18T10:36:28.976Z,987.29
2017-03-18T10:37:39.008Z,987.27
2017-03-18T10:38:49.380Z,987.36
2017-03-18T10:39:59.430Z,987.39
2017-03-18T10:41:09.479Z,987.29
2017-03-18T10:42:19.854Z,987.41
2017-03-18T10:43:30.209Z,987.52
2017-03-18T10:44:40.562Z,987.22
2017-03-18T10:45:50.918Z,987.25
2017-03-18T10:47:00.967Z,987.26
2017-03-18T10:48:11.030Z,987.27
2017-03-18T10:49:21.371Z,987.18
2017-03-18T10:50:31.711Z,987.07
2017-03-18T10:51:41.746Z,987.15
2017-03-18T10:52:51.786Z,987.12
2017-03-18T10:54:01.859Z,987.12
2017-03-18T10:55:12.219Z,987.1
2017-03-18T10:56:22.578Z,987.12
2017-03-18T10:57:32.963Z,987.16
2017-03-18T10:58:43.348Z,987.17
2017-03-18T10:59:52.762Z,987.13
2017-03-18T11:01:03.122Z,986.97
2017-03-18T11:02:13.184Z,987.14
2017-03-18T11:03:23.534Z,987.05
2017-03-18T11:04:33.892Z,987.06
2017-03-18T11:05:43.940Z,986.99
2017-03-18T11:06:54.296Z,986.99
2017-03-18T11:08:04.632Z,987.06
2017-03-18T11:09:14.716Z,986.93
2017-03-18T11:10:25.062Z,986.86
2017-03-18T11:11:35.418Z,986.93
2017-03-18T11:12:45.766Z,986.88
2017-03-18T11:13:56.143Z,986.86
2017-03-18T11:15:06.506Z,986.86
2017-03-18T11:16:16.856Z,986.57
2017-03-18T11:17:27.207Z,986.72
2017-03-18T11:18:37.544Z,986.52
2017-03-18T11:19:47.562Z,986.68
2017-03-18T11:20:57.911Z,986.62
2017-03-18T11:22:08.265Z,986.44
2017-03-18T11:23:18.656Z,986.53
2017-03-18T11:24:28.691Z,986.52
2017-03-18T11:25:39.049Z,986.51
2017-03-18T11:26:49.095Z,986.37
2017-03-18T11:27:59.126Z,986.51
2017-03-18T11:29:09.501Z,986.33
2017-03-18T11:30:19.866Z,986.41
2017-03-18T11:31:30.223Z,986.37
2017-03-18T11:32:40.571Z,986.32
2017-03-18T11:33:50.920Z,986.33
2017-03-18T11:35:01.276Z,986.35
2017-03-18T11:36:11.618Z,986.29
2017-03-18T11:37:21.966Z,986.34
2017-03-18T11:38:32.288Z,986.43
2017-03-18T11:39:42.012Z,986.33
2017-03-18T11:40:52.355Z,986.49
2017-03-18T11:42:02.700Z,986.29
2017-03-18T11:43:13.049Z,986.3
2017-03-18T11:44:23.091Z,986.27
2017-03-18T11:45:33.447Z,986.19
2017-03-18T11:46:43.790Z,986.34
2017-03-18T11:47:53.845Z,986.52
2017-03-18T11:49:04.195Z,986.37
2017-03-18T11:50:14.559Z,986.42
2017-03-18T11:51:24.912Z,986.35
2017-03-18T11:52:35.277Z,986.14
2017-03-18T11:53:45.651Z,986.21
2017-03-18T11:54:56.018Z,986.33
2017-03-18T11:56:06.373Z,986.19
2017-03-18T11:57:16.407Z,986.1
2017-03-18T11:58:26.470Z,985.95
2017-03-18T11:59:36.848Z,986.11
2017-03-18T12:00:47.211Z,986.19
2017-03-18T12:01:57.571Z,986.07
2017-03-18T12:03:07.922Z,986.16
2017-03-18T12:04:18.279Z,986.08
2017-03-18T12:05:28.657Z,985.9
2017-03-18T12:06:39.013Z,986.29
2017-03-18T12:07:49.371Z,985.91
2017-03-18T12:08:59.734Z,985.94
2017-03-18T12:10:10.079Z,985.96
2017-03-18T12:11:20.430Z,985.81
2017-03-18T12:12:30.813Z,986.28
2017-03-18T12:13:41.182Z,985.81
2017-03-18T12:14:50.909Z,985.74
2017-03-18T12:16:00.952Z,985.98
2017-03-18T12:17:11.329Z,985.74
2017-03-18T12:18:21.682Z,985.66
2017-03-18T12:19:31.730Z,985.7
2017-03-18T12:20:42.097Z,985.72
2017-03-18T12:21:52.130Z,985.86
2017-03-18T12:23:02.484Z,985.65
2017-03-18T12:24:12.854Z,985.77
2017-03-18T12:25:23.205Z,985.58
2017-03-18T12:26:33.259Z,985.58
2017-03-18T12:27:43.610Z,985.63
2017-03-18T12:28:53.965Z,985.55
2017-03-18T12:30:04.298Z,985.47
2017-03-18T12:31:14.334Z,985.55
2017-03-18T12:32:24.385Z,985.61
2017-03-18T12:33:34.733Z,985.51
2017-03-18T12:34:45.129Z,985.69
2017-03-18T12:35:55.488Z,985.37
2017-03-18T12:37:05.511Z,985.41
2017-03-18T12:38:15.913Z,985.51
2017-03-18T12:39:25.977Z,985.5
2017-03-18T12:40:36.031Z,985.26
2017-03-18T12:41:46.288Z,985.6
2017-03-18T12:42:56.325Z,985.72
2017-03-18T12:44:06.670Z,985.5
2017-03-18T12:45:17.015Z,985.39
2017-03-18T12:46:27.367Z,985.3
2017-03-18T12:47:37.727Z,985.44
2017-03-18T12:48:47.750Z,985.65
2017-03-18T12:49:58.099Z,985.79
2017-03-18T12:51:08.152Z,985.45
2017-03-18T12:52:18.497Z,985.54
2017-03-18T12:53:28.858Z,985.72
2017-03-18T12:54:38.894Z,985.59
2017-03-18T12:55:49.250Z,985.54
2017-03-18T12:56:59.599Z,985.72
2017-03-18T12:58:09.656Z,985.59
2017-03-18T12:59:19.388Z,985.58
2017-03-18T13:00:29.739Z,985.65
2017-03-18T13:01:40.091Z,985.62
2017-03-18T13:02:50.435Z,985.4
2017-03-18T13:04:00.784Z,985.56
2017-03-18T13:05:11.156Z,985.6
2017-03-18T13:06:21.197Z,985.53
2017-03-18T13:07:31.580Z,985.72
2017-03-18T13:08:41.634Z,985.68
2017-03-18T13:09:51.992Z,985.71
2017-03-18T13:11:02.343Z,985.48
2017-03-18T13:12:12.699Z,985.65
2017-03-18T13:13:23.063Z,985.65
2017-03-18T13:14:33.441Z,985.66
2017-03-18T13:15:43.777Z,985.67
2017-03-18T13:16:53.498Z,985.58
2017-03-18T13:18:03.849Z,985.55
2017-03-18T13:19:14.190Z,985.35
2017-03-18T13:20:24.541Z,985.56
2017-03-18T13:21:34.580Z,985.23
2017-03-18T13:22:44.638Z,985.45
2017-03-18T13:23:54.661Z,985.54
2017-03-18T13:25:05.014Z,985.56
2017-03-18T13:26:15.369Z,985.46
2017-03-18T13:27:25.726Z,985.38
2017-03-18T13:28:36.109Z,985.42
2017-03-18T13:29:46.466Z,985.37
2017-03-18T13:30:56.485Z,985.48
2017-03-18T13:32:06.858Z,985.61
2017-03-18T13:33:17.219Z,985.73
2017-03-18T13:34:27.599Z,985.75
2017-03-18T13:35:37.655Z,985.62
2017-03-18T13:36:48.011Z,985.76
2017-03-18T13:37:58.358Z,985.63
2017-03-18T13:39:08.701Z,985.71
2017-03-18T13:40:18.740Z,985.68
2017-03-18T13:41:29.068Z,985.55
2017-03-18T13:42:39.424Z,985.58
2017-03-18T13:43:49.462Z,985.62
2017-03-18T13:44:59.519Z,985.89
2017-03-18T13:46:09.584Z,985.81
2017-03-18T13:47:19.952Z,985.78
2017-03-18T13:48:30.296Z,985.74
2017-03-18T13:49:40.333Z,985.44
2017-03-18T13:50:50.671Z,985.96
2017-03-18T13:52:00.397Z,985.76
2017-03-18T13:53:10.754Z,985.69
2017-03-18T13:54:20.806Z,985.6
2017-03-18T13:55:31.173Z,985.88
2017-03-18T13:56:41.510Z,985.65
2017-03-18T13:57:51.852Z,985.82
2017-03-18T13:59:02.243Z,985.86
2017-03-18T14:00:12.604Z,985.78
2017-03-18T14:01:22.932Z,985.77
2017-03-18T14:02:32.975Z,986.19
2017-03-18T14:03:43.031Z,985.9
2017-03-18T14:04:53.059Z,985.93
2017-03-18T14:06:03.115Z,985.74
2017-03-18T14:07:13.480Z,985.77
2017-03-18T14:08:23.834Z,986.03
2017-03-18T14:09:33.881Z,985.81
2017-03-18T14:10:44.219Z,985.69
2017-03-18T14:11:54.592Z,985.78
2017-03-18T14:13:04.645Z,985.74
2017-03-18T14:14:15.015Z,986.01
2017-03-18T14:15:25.369Z,985.86
2017-03-18T14:16:35.728Z,985.91
2017-03-18T14:17:46.063Z,986.03
2017-03-18T14:18:56.434Z,986.01
2017-03-18T14:20:06.794Z,986.18
2017-03-18T14:21:17.150Z,986.23
2017-03-18T14:22:27.189Z,986.02
2017-03-18T14:23:37.572Z,985.94
2017-03-18T14:24:47.923Z,986.2
2017-03-18T14:25:58.286Z,986.02
2017-03-18T14:27:08.555Z,986.15
2017-03-18T14:28:18.927Z,986.3
2017-03-18T14:29:28.724Z,986
2017-03-18T14:30:39.079Z,985.95
2017-03-18T14:31:49.425Z,986.05
2017-03-18T14:32:59.768Z,985.96
2017-03-18T14:34:10.130Z,985.92
2017-03-18T14:35:20.470Z,985.72
2017-03-18T14:36:30.853Z,985.99
2017-03-18T14:37:40.908Z,985.93
2017-03-18T14:38:51.269Z,985.71
2017-03-18T14:40:01.627Z,986.03
2017-03-18T14:41:12.000Z,986.04
2017-03-18T14:42:22.349Z,985.86
2017-03-18T14:43:32.389Z,985.75
2017-03-18T14:44:42.737Z,985.89
2017-03-18T14:45:52.772Z,985.74
2017-03-18T14:47:02.788Z,986.01
2017-03-18T14:48:13.143Z,985.93
2017-03-18T14:49:23.177Z,985.83
2017-03-18T14:50:33.546Z,985.85
2017-03-18T14:51:43.916Z,985.63
2017-03-18T14:52:54.259Z,985.97
2017-03-18T14:54:04.648Z,985.97
2017-03-18T14:55:15.010Z,985.78
2017-03-18T14:56:25.351Z,985.84
2017-03-18T14:57:35.712Z,985.95
2017-03-18T14:58:46.093Z,985.87
2017-03-18T14:59:56.127Z,985.92
2017-03-18T15:01:05.869Z,985.81
2017-03-18T15:02:16.247Z,986
2017-03-18T15:03:26.609Z,985.79
2017-03-18T15:04:36.651Z,986.06
2017-03-18T15:05:47.020Z,986.05
2017-03-18T15:06:57.380Z,985.89
2017-03-18T15:08:07.732Z,986.17
2017-03-18T15:09:18.085Z,985.82